Time;durP1;ratioP1;P1;durP2;ratioP2;P2;SDS_P1;SDS_P2;PMS_P1;PMS_P2;Temp;Humidity;BMP_temperature;BMP_pressure;BME280_temperature;BME280_humidity;BME280_pressure;Samples;Min_cycle;Max_cycle;Signal;HPM_P1;HPM_P2
2024/01/23 00:00:07;;;;;;;22.60;2.33;;;7.90;99.90;;;;;;5114964;28;20016;-37
2024/01/23 00:02:33;;;;;;;10.60;2.70;;;8.00;99.90;;;;;;5116112;28;20047;-36
2024/01/23 00:04:58;;;;;;;18.25;1.70;;;8.00;99.90;;;;;;5116010;28;20054;-37
2024/01/23 00:07:24;;;;;;;15.88;2.45;;;8.00;99.90;;;;;;5097917;28;20027;-39
2024/01/23 00:09:49;;;;;;;19.40;2.20;;;8.00;99.90;;;;;;5095941;28;20034;-37
2024/01/23 00:12:15;;;;;;;12.82;1.90;;;8.00;99.90;;;;;;5113429;27;20489;-38
2024/01/23 00:14:41;;;;;;;21.40;2.90;;;8.00;99.90;;;;;;5136203;27;20047;-52
2024/01/23 00:17:06;;;;;;;16.73;2.03;;;8.10;99.90;;;;;;5136210;27;20027;-38
2024/01/23 00:19:32;;;;;;;16.65;2.15;;;8.10;99.90;;;;;;5136526;27;20030;-37
2024/01/23 00:21:58;;;;;;;13.63;2.15;;;8.10;99.90;;;;;;5136440;27;20011;-36
2024/01/23 00:24:24;;;;;;;11.90;2.47;;;8.10;99.90;;;;;;5136132;27;20055;-37
2024/01/23 00:26:49;;;;;;;14.48;1.88;;;8.10;99.90;;;;;;5112120;27;20097;-37
2024/01/23 00:29:15;;;;;;;18.80;3.40;;;8.10;99.90;;;;;;5095134;28;20024;-38
2024/01/23 00:31:41;;;;;;;21.77;2.42;;;8.10;99.90;;;;;;5095046;28;20105;-37
2024/01/23 00:34:06;;;;;;;19.15;2.83;;;8.00;99.90;;;;;;5095017;28;20020;-37
2024/01/23 00:36:32;;;;;;;19.95;2.42;;;8.00;99.90;;;;;;5094929;28;20457;-38
2024/01/23 00:38:58;;;;;;;18.10;2.20;;;8.00;99.90;;;;;;5094974;28;20069;-37
2024/01/23 00:41:23;;;;;;;11.27;1.98;;;8.00;99.90;;;;;;5095217;28;20020;-55
2024/01/23 00:43:49;;;;;;;22.05;2.90;;;7.90;99.90;;;;;;5095372;28;20023;-52
2024/01/23 00:46:15;;;;;;;22.10;3.38;;;8.00;99.90;;;;;;5094790;28;20439;-56
2024/01/23 00:48:41;;;;;;;16.35;2.42;;;7.90;99.90;;;;;;5094971;28;20399;-53
2024/01/23 00:51:06;;;;;;;16.20;2.33;;;7.90;99.90;;;;;;5094655;28;20035;-53
2024/01/23 00:53:34;;;;;;;28.38;2.67;;;7.80;99.90;;;;;;5094629;28;20077;-53
2024/01/23 00:56:00;;;;;;;29.08;2.53;;;7.80;99.90;;;;;;5099251;28;20028;-53
2024/01/23 00:58:26;;;;;;;12.80;2.13;;;7.80;99.90;;;;;;5114788;28;20372;-52
2024/01/23 01:00:51;;;;;;;12.75;2.15;;;7.80;99.90;;;;;;5102130;28;20016;-51
2024/01/23 01:03:17;;;;;;;8.82;1.83;;;7.80;99.90;;;;;;5094676;28;20146;-53
2024/01/23 01:05:43;;;;;;;8.00;2.28;;;7.70;99.90;;;;;;5094302;28;20081;-48
2024/01/23 01:08:09;;;;;;;8.10;1.90;;;7.70;99.90;;;;;;5094414;28;20101;-54
2024/01/23 01:10:34;;;;;;;16.50;3.40;;;7.60;99.90;;;;;;5093826;28;20038;-54
2024/01/23 01:13:00;;;;;;;14.90;2.95;;;7.60;99.90;;;;;;5125902;27;20030;-70
2024/01/23 01:15:26;;;;;;;15.57;2.15;;;7.60;99.90;;;;;;5134027;27;20023;-55
2024/01/23 01:17:51;;;;;;;12.07;1.35;;;7.60;99.90;;;;;;5110714;27;20107;-55
2024/01/23 01:20:17;;;;;;;16.30;1.88;;;7.50;99.90;;;;;;5094097;28;20095;-53
2024/01/23 01:22:42;;;;;;;11.98;2.13;;;7.50;99.90;;;;;;5094073;28;20055;-54
2024/01/23 01:25:11;;;;;;;3.30;1.38;;;7.50;99.90;;;;;;5094060;28;20044;-54
2024/01/23 01:27:37;;;;;;;11.20;1.73;;;7.60;99.90;;;;;;5094009;28;20050;-71
2024/01/23 01:30:04;;;;;;;17.50;2.20;;;7.50;99.90;;;;;;5093927;28;20102;-53
2024/01/23 01:32:30;;;;;;;13.75;2.88;;;7.50;99.90;;;;;;5093854;28;20066;-52
2024/01/23 01:34:56;;;;;;;11.00;1.45;;;7.50;99.90;;;;;;5094411;28;20025;-54
2024/01/23 01:37:21;;;;;;;20.23;2.15;;;7.50;99.90;;;;;;5093698;28;20027;-53
2024/01/23 01:39:47;;;;;;;10.35;1.98;;;7.50;99.90;;;;;;5093714;28;20384;-50
2024/01/23 01:42:12;;;;;;;21.58;3.83;;;7.50;99.90;;;;;;5093736;28;20103;-55
2024/01/23 01:44:38;;;;;;;20.70;3.00;;;7.50;99.90;;;;;;5093678;28;20020;-55
2024/01/23 01:47:04;;;;;;;14.80;2.22;;;7.40;99.90;;;;;;5093585;28;20031;-54
2024/01/23 01:49:30;;;;;;;14.95;2.30;;;7.40;99.90;;;;;;5093563;28;20024;-53
2024/01/23 01:51:56;;;;;;;20.30;2.30;;;7.50;99.90;;;;;;5092933;28;20023;-40
2024/01/23 01:54:23;;;;;;;14.65;1.95;;;7.50;99.90;;;;;;5099141;28;20020;-43
2024/01/23 01:56:52;;;;;;;14.73;2.28;;;7.50;99.90;;;;;;5113754;28;20495;-38
2024/01/23 01:59:20;;;;;;;16.60;2.08;;;7.50;99.90;;;;;;5114016;28;20383;-37
2024/01/23 02:01:45;;;;;;;10.00;1.88;;;7.50;99.90;;;;;;5113640;28;20472;-38
2024/01/23 02:04:11;;;;;;;25.35;2.55;;;7.50;99.90;;;;;;5113271;28;20069;-38
2024/01/23 02:06:37;;;;;;;19.25;2.90;;;7.50;99.90;;;;;;5101543;28;20024;-42
2024/01/23 02:09:03;;;;;;;8.70;1.77;;;7.50;99.90;;;;;;5093658;28;20581;-36
2024/01/23 02:11:29;;;;;;;21.95;2.20;;;7.60;99.90;;;;;;5099515;27;20103;-38
2024/01/23 02:13:55;;;;;;;19.83;2.45;;;7.50;99.90;;;;;;5132644;27;20542;-37
2024/01/23 02:16:21;;;;;;;11.55;2.15;;;7.60;99.90;;;;;;5134023;27;20016;-38
2024/01/23 02:18:48;;;;;;;19.38;2.20;;;7.60;99.90;;;;;;5133973;27;20024;-38
2024/01/23 02:21:15;;;;;;;26.27;4.13;;;7.60;99.90;;;;;;5133256;27;20487;-49
2024/01/23 02:23:42;;;;;;;15.50;2.15;;;7.60;99.90;;;;;;5133902;27;20536;-38
2024/01/23 02:26:07;;;;;;;18.60;2.55;;;7.60;99.90;;;;;;5105986;27;20028;-40
2024/01/23 02:28:33;;;;;;;15.73;2.60;;;7.50;99.90;;;;;;5092960;28;20031;-57
2024/01/23 02:30:59;;;;;;;24.75;3.72;;;7.50;99.90;;;;;;5092961;28;20016;-55
2024/01/23 02:33:25;;;;;;;16.63;2.10;;;7.50;99.90;;;;;;5093142;28;20027;-55
2024/01/23 02:35:50;;;;;;;10.82;2.90;;;7.60;99.90;;;;;;5092876;28;20024;-52
2024/01/23 02:38:16;;;;;;;18.02;3.53;;;7.60;99.90;;;;;;5091478;28;20024;-52
2024/01/23 02:40:41;;;;;;;19.27;2.53;;;7.60;99.90;;;;;;5093090;28;20016;-58
2024/01/23 02:43:07;;;;;;;14.35;3.22;;;7.70;99.90;;;;;;5093379;28;20017;-51
2024/01/23 02:45:33;;;;;;;19.83;2.80;;;7.70;99.90;;;;;;5092764;28;20035;-56
2024/01/23 02:47:59;;;;;;;18.70;1.83;;;7.70;99.90;;;;;;5092648;28;20103;-55
2024/01/23 02:50:26;;;;;;;12.20;2.08;;;7.70;99.90;;;;;;5092778;28;20104;-53
2024/01/23 02:52:52;;;;;;;20.10;2.42;;;7.70;99.90;;;;;;5098414;28;20023;-55
2024/01/23 02:55:18;;;;;;;4.43;1.30;;;7.70;99.90;;;;;;5113046;28;20391;-55
2024/01/23 02:57:43;;;;;;;13.85;2.03;;;7.70;99.90;;;;;;5111613;28;20031;-55
2024/01/23 03:00:09;;;;;;;13.15;2.28;;;7.60;99.90;;;;;;5099063;28;20020;-53
2024/01/23 03:02:35;;;;;;;15.10;1.95;;;7.60;99.90;;;;;;5092799;28;20028;-39
2024/01/23 03:05:01;;;;;;;21.08;3.92;;;7.60;99.90;;;;;;5091310;28;20051;-37
2024/01/23 03:07:27;;;;;;;16.88;1.92;;;7.60;99.90;;;;;;5092798;28;20059;-37
2024/01/23 03:09:52;;;;;;;7.47;1.42;;;7.60;99.90;;;;;;5092535;28;20028;-38
2024/01/23 03:12:22;;;;;;;15.05;2.33;;;7.60;99.90;;;;;;5112625;28;20116;-41
2024/01/23 03:14:49;;;;;;;11.25;1.92;;;7.60;99.90;;;;;;5133271;28;20046;-38
2024/01/23 03:17:16;;;;;;;11.27;1.63;;;7.60;99.90;;;;;;5103299;27;20081;-70
2024/01/23 03:19:42;;;;;;;17.20;2.80;;;7.50;99.90;;;;;;5092542;28;20097;-38
2024/01/23 03:22:09;;;;;;;8.35;1.55;;;7.50;99.90;;;;;;5092477;28;20070;-38
2024/01/23 03:24:37;;;;;;;11.30;2.13;;;7.50;99.90;;;;;;5092453;28;20028;-37
2024/01/23 03:27:04;;;;;;;17.60;2.13;;;7.50;99.90;;;;;;5092447;28;20020;-46
2024/01/23 03:29:38;;;;;;;25.75;3.40;;;7.50;99.90;;;;;;5092679;28;20031;-39
2024/01/23 03:32:04;;;;;;;15.20;2.20;;;7.40;99.90;;;;;;5092436;28;20446;-39
2024/01/23 03:34:31;;;;;;;25.77;2.38;;;7.40;99.90;;;;;;5096352;28;20111;-39
2024/01/23 03:37:00;;;;;;;19.20;2.58;;;7.40;99.90;;;;;;5095927;28;20072;-38
2024/01/23 03:39:26;;;;;;;12.18;1.83;;;7.40;99.90;;;;;;5095961;28;20101;-39
2024/01/23 03:41:52;;;;;;;26.95;3.08;;;7.40;99.90;;;;;;5096281;28;20468;-38
2024/01/23 03:44:18;;;;;;;19.85;3.38;;;7.40;99.90;;;;;;5095970;28;20027;-39
2024/01/23 03:46:43;;;;;;;12.38;2.22;;;7.30;99.90;;;;;;5095876;28;20044;-37
2024/01/23 03:49:09;;;;;;;12.48;2.40;;;7.30;99.90;;;;;;5095818;28;20024;-39
2024/01/23 03:51:35;;;;;;;47.83;3.97;;;7.30;99.90;;;;;;5096009;28;20023;-37
2024/01/23 03:54:00;;;;;;;12.88;2.67;;;7.30;99.90;;;;;;5094476;28;20028;-38
2024/01/23 03:56:26;;;;;;;16.92;1.95;;;7.30;99.90;;;;;;5095655;28;20028;-42
2024/01/23 03:58:52;;;;;;;13.60;2.08;;;7.30;99.90;;;;;;5095732;28;20020;-37
2024/01/23 04:01:17;;;;;;;13.93;1.75;;;7.30;99.90;;;;;;5095685;28;20540;-37
2024/01/23 04:03:44;;;;;;;17.80;3.20;;;7.20;99.90;;;;;;5095588;28;20063;-37
2024/01/23 04:06:09;;;;;;;8.52;2.10;;;7.30;99.90;;;;;;5095479;28;20066;-38
2024/01/23 04:08:36;;;;;;;16.80;1.65;;;7.30;99.90;;;;;;5112818;28;20027;-37
2024/01/23 04:11:01;;;;;;;15.68;2.33;;;7.30;99.90;;;;;;5115839;27;20032;-38
2024/01/23 04:13:27;;;;;;;10.27;3.20;;;7.30;99.90;;;;;;5135483;27;20100;-52
2024/01/23 04:15:52;;;;;;;14.40;2.15;;;7.30;99.90;;;;;;5136345;27;20035;-55
2024/01/23 04:18:18;;;;;;;15.07;2.30;;;7.30;99.90;;;;;;5136203;27;20031;-65
2024/01/23 04:20:44;;;;;;;8.90;2.10;;;7.30;99.90;;;;;;5136214;27;20019;-54
2024/01/23 04:23:09;;;;;;;18.70;2.30;;;7.30;99.90;;;;;;5136091;27;20016;-54
2024/01/23 04:25:35;;;;;;;17.52;2.80;;;7.30;99.90;;;;;;5100426;27;20076;-56
2024/01/23 04:28:01;;;;;;;12.95;2.55;;;7.30;99.90;;;;;;5095085;28;20392;-54
2024/01/23 04:30:27;;;;;;;13.02;1.80;;;7.40;99.90;;;;;;5095093;28;20016;-53
2024/01/23 04:32:53;;;;;;;13.13;3.72;;;7.40;99.90;;;;;;5095291;28;20027;-54
2024/01/23 04:35:18;;;;;;;7.20;1.65;;;7.50;99.90;;;;;;5095014;28;20050;-54
2024/01/23 04:37:44;;;;;;;10.93;2.13;;;7.50;99.90;;;;;;5095075;28;20485;-55
2024/01/23 04:40:10;;;;;;;20.85;2.30;;;7.50;99.90;;;;;;5094880;28;20102;-52
2024/01/23 04:42:36;;;;;;;12.77;1.63;;;7.50;99.90;;;;;;5095734;28;20130;-51
2024/01/23 04:45:03;;;;;;;10.98;1.65;;;7.50;99.90;;;;;;5094025;28;20424;-40
2024/01/23 04:47:28;;;;;;;19.83;2.35;;;7.50;99.90;;;;;;5096567;28;20032;-39
2024/01/23 04:49:54;;;;;;;18.55;2.88;;;7.60;99.90;;;;;;5115066;28;20019;-37
2024/01/23 04:52:20;;;;;;;6.07;1.83;;;7.60;99.90;;;;;;5115035;28;20051;-39
2024/01/23 04:54:46;;;;;;;19.75;2.83;;;7.50;99.90;;;;;;5115055;28;20425;-38
2024/01/23 04:57:14;;;;;;;19.02;2.78;;;7.50;99.90;;;;;;5114905;28;20019;-39
2024/01/23 04:59:40;;;;;;;18.70;1.80;;;7.50;99.90;;;;;;5113828;28;20031;-39
2024/01/23 05:02:06;;;;;;;14.88;2.10;;;7.50;99.90;;;;;;5114945;28;20387;-55
2024/01/23 05:04:31;;;;;;;13.60;2.40;;;7.50;99.90;;;;;;5114799;28;20019;-53
2024/01/23 05:06:57;;;;;;;15.57;2.00;;;7.60;99.90;;;;;;5099166;28;20042;-55
2024/01/23 05:09:23;;;;;;;18.23;2.63;;;7.60;99.90;;;;;;5094329;28;20369;-54
2024/01/23 05:11:49;;;;;;;15.80;2.83;;;7.60;99.90;;;;;;5106249;27;20106;-62
2024/01/23 05:14:17;;;;;;;10.40;2.22;;;7.60;99.90;;;;;;5135044;27;20050;-53
2024/01/23 05:16:43;;;;;;;15.75;1.58;;;7.60;99.90;;;;;;5097364;27;20116;-55
2024/01/23 05:19:09;;;;;;;17.00;2.75;;;7.60;99.90;;;;;;5094131;28;20114;-54
2024/01/23 05:21:34;;;;;;;13.68;1.52;;;7.60;99.90;;;;;;5092946;28;20470;-57
2024/01/23 05:24:03;;;;;;;22.60;2.47;;;7.50;99.90;;;;;;5094070;28;20024;-50
2024/01/23 05:26:29;;;;;;;25.95;2.40;;;7.40;99.90;;;;;;5093958;28;20443;-55
2024/01/23 05:28:54;;;;;;;20.48;3.13;;;7.40;99.90;;;;;;5093949;28;20048;-53
2024/01/23 05:31:20;;;;;;;15.07;1.90;;;7.40;99.90;;;;;;5093933;28;20016;-56
2024/01/23 05:33:46;;;;;;;27.17;3.15;;;7.40;99.90;;;;;;5094430;28;20429;-54
2024/01/23 05:36:11;;;;;;;10.50;2.17;;;7.30;99.90;;;;;;5094144;28;20087;-55
2024/01/23 05:38:37;;;;;;;15.75;2.35;;;7.40;99.90;;;;;;5094006;28;20545;-57
2024/01/23 05:41:03;;;;;;;23.17;2.45;;;7.30;99.90;;;;;;5093757;28;20024;-56
2024/01/23 05:43:29;;;;;;;13.13;1.80;;;7.30;99.90;;;;;;5094032;28;20012;-56
2024/01/23 05:45:54;;;;;;;9.10;2.28;;;7.30;99.90;;;;;;5097481;28;20079;-54
2024/01/23 05:48:20;;;;;;;13.68;3.22;;;7.30;99.90;;;;;;5113914;28;20552;-55
2024/01/23 05:50:46;;;;;;;22.98;2.70;;;7.20;99.90;;;;;;5094780;28;20032;-55
2024/01/23 05:53:11;;;;;;;22.58;2.10;;;7.20;99.90;;;;;;5092281;28;20020;-54
2024/01/23 05:55:37;;;;;;;25.88;2.00;;;7.20;99.90;;;;;;5093521;28;20031;-55
2024/01/23 05:58:03;;;;;;;14.68;2.55;;;7.20;99.90;;;;;;5093651;28;20463;-55
2024/01/23 06:00:29;;;;;;;11.40;2.35;;;7.10;99.90;;;;;;5093387;28;20380;-55
2024/01/23 06:02:54;;;;;;;17.35;2.55;;;7.10;99.90;;;;;;5093553;28;20012;-57
2024/01/23 06:05:20;;;;;;;17.55;2.17;;;7.10;99.90;;;;;;5093213;28;20016;-55
2024/01/23 06:07:49;;;;;;;26.67;3.83;;;7.10;99.90;;;;;;5112000;28;20069;-54
2024/01/23 06:10:16;;;;;;;21.02;2.67;;;7.10;99.90;;;;;;5113521;28;20467;-54
2024/01/23 06:12:41;;;;;;;23.00;1.80;;;7.10;99.90;;;;;;5126865;27;20023;-55
2024/01/23 06:15:08;;;;;;;20.38;3.00;;;7.10;99.90;;;;;;5132530;27;20043;-53
2024/01/23 06:17:34;;;;;;;18.38;2.33;;;7.10;99.90;;;;;;5133927;27;20091;-56
2024/01/23 06:20:01;;;;;;;14.40;1.67;;;7.00;99.90;;;;;;5133943;27;20019;-52
2024/01/23 06:22:27;;;;;;;19.90;1.80;;;7.00;99.90;;;;;;5134008;27;20030;-56
2024/01/23 06:25:06;;;;;;;17.25;2.97;;;7.00;99.90;;;;;;5093791;28;20209;-55
2024/01/23 06:27:32;;;;;;;13.50;3.00;;;7.00;99.90;;;;;;5093039;28;20028;-72
2024/01/23 06:29:58;;;;;;;16.85;2.55;;;7.00;99.90;;;;;;5093183;28;20384;-52
2024/01/23 06:32:24;;;;;;;11.82;2.45;;;7.00;99.90;;;;;;5093282;28;20073;-55
2024/01/23 06:34:50;;;;;;;12.93;2.17;;;7.00;99.90;;;;;;5092883;28;20070;-55
2024/01/23 06:37:16;;;;;;;8.07;3.05;;;7.00;99.90;;;;;;5092809;28;20081;-55
2024/01/23 06:39:42;;;;;;;13.05;2.05;;;7.00;99.90;;;;;;5093397;28;20024;-55
2024/01/23 06:42:08;;;;;;;7.45;2.10;;;7.00;99.90;;;;;;5092841;28;20020;-54
2024/01/23 06:44:34;;;;;;;22.63;1.90;;;7.00;99.90;;;;;;5103857;28;20476;-56
2024/01/23 06:47:00;;;;;;;23.45;3.40;;;7.00;99.90;;;;;;5113174;28;20165;-55
2024/01/23 06:49:26;;;;;;;14.48;2.10;;;7.00;99.90;;;;;;5113098;28;20509;-51
2024/01/23 06:51:52;;;;;;;13.30;2.17;;;7.00;99.90;;;;;;5113304;28;20024;-54
2024/01/23 06:54:18;;;;;;;19.38;3.25;;;7.00;99.90;;;;;;5113079;28;20028;-53
2024/01/23 06:56:45;;;;;;;9.10;1.73;;;7.00;99.90;;;;;;5110914;28;20491;-56
2024/01/23 06:59:12;;;;;;;24.65;4.13;;;7.00;99.90;;;;;;5092735;28;20059;-55
2024/01/23 07:01:40;;;;;;;16.75;1.92;;;7.00;99.90;;;;;;5092608;28;20035;-54
2024/01/23 07:04:07;;;;;;;17.10;2.53;;;7.00;99.90;;;;;;5092629;28;20081;-55
2024/01/23 07:06:32;;;;;;;17.67;3.67;;;7.00;99.90;;;;;;5092490;28;20062;-60
2024/01/23 07:08:58;;;;;;;33.63;4.00;;;7.00;99.90;;;;;;5095608;28;20056;-55
2024/01/23 07:11:24;;;;;;;12.45;1.98;;;7.00;99.90;;;;;;5101301;27;20020;-60
2024/01/23 07:13:52;;;;;;;16.13;2.42;;;7.00;99.90;;;;;;5131299;27;20415;-49
2024/01/23 07:16:19;;;;;;;12.13;1.83;;;7.00;99.90;;;;;;5096439;28;20052;-58
2024/01/23 07:18:44;;;;;;;22.55;2.08;;;7.00;99.90;;;;;;5096597;28;20112;-55
2024/01/23 07:21:10;;;;;;;22.92;2.50;;;7.10;99.90;;;;;;5096418;28;20103;-55
2024/01/23 07:23:36;;;;;;;10.75;2.28;;;7.10;99.90;;;;;;5096310;28;20062;-56
2024/01/23 07:26:02;;;;;;;20.10;2.25;;;7.00;99.90;;;;;;5096329;28;20024;-55
2024/01/23 07:28:28;;;;;;;16.13;3.38;;;7.00;99.90;;;;;;5096323;28;20496;-55
2024/01/23 07:30:54;;;;;;;7.22;2.30;;;7.10;99.90;;;;;;5096705;28;20039;-55
2024/01/23 07:33:20;;;;;;;11.20;2.42;;;7.00;99.90;;;;;;5096472;28;20024;-54
2024/01/23 07:35:46;;;;;;;13.02;2.30;;;7.00;99.90;;;;;;5096086;28;20032;-55
2024/01/23 07:38:12;;;;;;;35.13;2.95;;;7.00;99.90;;;;;;5096022;28;20107;-54
2024/01/23 07:40:38;;;;;;;21.40;2.60;;;7.00;99.90;;;;;;5096039;28;20017;-53
2024/01/23 07:43:04;;;;;;;10.35;1.77;;;7.00;99.90;;;;;;5111701;28;20069;-38
2024/01/23 07:45:29;;;;;;;21.48;2.70;;;7.00;99.90;;;;;;5116321;28;20340;-42
2024/01/23 07:47:55;;;;;;;16.52;2.30;;;6.90;99.90;;;;;;5112754;28;20032;-39
2024/01/23 07:50:21;;;;;;;12.10;1.77;;;6.90;99.90;;;;;;5094525;28;20097;-39
2024/01/23 07:52:47;;;;;;;20.48;2.85;;;6.90;99.90;;;;;;5095810;28;20024;-38
2024/01/23 07:55:12;;;;;;;32.25;3.53;;;6.90;99.90;;;;;;5095935;28;20035;-47
2024/01/23 07:57:38;;;;;;;20.15;2.85;;;6.90;99.90;;;;;;5095699;28;20038;-68
2024/01/23 08:00:05;;;;;;;15.80;2.22;;;6.90;99.90;;;;;;5095646;28;20411;-39
2024/01/23 08:02:31;;;;;;;11.93;1.13;;;6.90;99.90;;;;;;5095584;28;20039;-38
2024/01/23 08:04:56;;;;;;;13.00;2.42;;;6.90;99.90;;;;;;5096406;28;20024;-58
2024/01/23 08:07:22;;;;;;;20.67;2.47;;;6.90;99.90;;;;;;5095675;28;20024;-45
2024/01/23 08:09:47;;;;;;;20.65;3.03;;;6.80;99.90;;;;;;5095392;28;20095;-39
2024/01/23 08:12:14;;;;;;;13.07;1.98;;;6.80;99.90;;;;;;5114398;27;20019;-39
2024/01/23 08:14:40;;;;;;;18.75;2.33;;;6.80;99.90;;;;;;5136223;27;20554;-39
2024/01/23 08:17:06;;;;;;;17.10;3.08;;;6.80;99.90;;;;;;5136098;27;20118;-39
2024/01/23 08:19:32;;;;;;;12.60;1.95;;;6.70;99.90;;;;;;5135181;27;20051;-38
2024/01/23 08:21:58;;;;;;;20.33;2.45;;;6.70;99.90;;;;;;5128776;27;20025;-38
2024/01/23 08:24:23;;;;;;;13.73;2.25;;;6.70;99.90;;;;;;5094048;28;20077;-41
2024/01/23 08:26:52;;;;;;;16.25;2.47;;;6.70;99.90;;;;;;5095209;28;20099;-39
2024/01/23 08:29:19;;;;;;;10.82;1.55;;;6.60;99.90;;;;;;5095509;28;20162;-39
2024/01/23 08:31:45;;;;;;;14.25;2.58;;;6.60;99.90;;;;;;5095101;28;20499;-38
2024/01/23 08:34:11;;;;;;;25.20;3.65;;;6.50;99.90;;;;;;5094955;28;20035;-41
2024/01/23 08:36:37;;;;;;;22.25;2.60;;;6.50;99.90;;;;;;5094981;28;20024;-41
2024/01/23 08:39:03;;;;;;;17.25;2.58;;;6.50;99.90;;;;;;5095154;28;20085;-38
2024/01/23 08:41:29;;;;;;;12.30;1.45;;;6.50;99.90;;;;;;5094770;28;20032;-38
2024/01/23 08:43:55;;;;;;;21.30;2.92;;;6.50;99.90;;;;;;5094723;28;20475;-39
2024/01/23 08:46:22;;;;;;;19.80;3.60;;;6.50;99.90;;;;;;5095049;28;20024;-36
2024/01/23 08:48:48;;;;;;;16.73;2.78;;;6.50;99.90;;;;;;5094640;28;20028;-40
2024/01/23 08:51:14;;;;;;;27.70;3.25;;;6.60;99.90;;;;;;5094685;28;20032;-36
2024/01/23 08:53:39;;;;;;;25.63;4.75;;;6.60;99.90;;;;;;5094791;28;20036;-39
2024/01/23 08:56:05;;;;;;;20.33;2.90;;;6.70;99.90;;;;;;5095142;28;20040;-40
2024/01/23 08:58:31;;;;;;;17.92;2.70;;;6.80;99.90;;;;;;5092994;28;20036;-59
2024/01/23 09:00:57;;;;;;;17.83;1.98;;;6.90;99.90;;;;;;5094515;28;20033;-41
2024/01/23 09:03:23;;;;;;;25.95;3.95;;;6.90;99.90;;;;;;5092807;28;20182;-38
2024/01/23 09:05:50;;;;;;;27.40;3.13;;;7.00;99.90;;;;;;5094309;28;20028;-40
2024/01/23 09:08:16;;;;;;;20.17;2.80;;;6.90;99.90;;;;;;5094549;28;20503;-39
2024/01/23 09:10:42;;;;;;;17.77;2.10;;;6.90;99.90;;;;;;5094263;28;20024;-40
2024/01/23 09:13:07;;;;;;;15.93;2.72;;;6.90;99.90;;;;;;5105716;28;20032;-55
2024/01/23 09:15:33;;;;;;;19.23;2.65;;;7.00;99.90;;;;;;5093072;28;20050;-55
2024/01/23 09:18:00;;;;;;;24.30;3.40;;;7.00;99.90;;;;;;5094130;28;20035;-55
2024/01/23 09:20:26;;;;;;;20.73;2.60;;;7.00;99.90;;;;;;5094197;28;20099;-57
2024/01/23 09:22:51;;;;;;;27.10;2.78;;;7.00;99.90;;;;;;5094067;28;20024;-61
2024/01/23 09:25:20;;;;;;;21.65;2.33;;;7.00;99.90;;;;;;5094046;28;20510;-57
2024/01/23 09:27:46;;;;;;;23.35;2.17;;;7.10;99.90;;;;;;5094214;28;20532;-56
2024/01/23 09:30:13;;;;;;;18.65;3.28;;;7.10;99.90;;;;;;5094328;28;20062;-56
2024/01/23 09:32:38;;;;;;;15.93;3.00;;;7.20;99.90;;;;;;5093827;28;20031;-59
2024/01/23 09:35:06;;;;;;;16.98;2.38;;;7.40;99.90;;;;;;5093844;28;20373;-56
2024/01/23 09:37:32;;;;;;;16.38;2.90;;;7.40;99.90;;;;;;5104656;28;20498;-55
2024/01/23 09:39:58;;;;;;;18.83;2.88;;;7.50;99.90;;;;;;5114119;28;20545;-56
2024/01/23 09:42:24;;;;;;;31.75;3.95;;;7.50;99.90;;;;;;5114108;28;20020;-56
2024/01/23 09:44:53;;;;;;;13.10;2.75;;;7.50;99.90;;;;;;5114063;28;20484;-55
2024/01/23 09:47:20;;;;;;;16.30;2.75;;;7.60;99.90;;;;;;5107129;28;20476;-56
2024/01/23 09:49:47;;;;;;;22.98;3.70;;;7.60;99.90;;;;;;5093554;28;20016;-56
2024/01/23 09:52:13;;;;;;;23.10;2.55;;;7.60;99.90;;;;;;5093513;28;20031;-55
2024/01/23 09:54:40;;;;;;;29.95;3.75;;;7.60;99.90;;;;;;5093511;28;20028;-56
2024/01/23 09:57:07;;;;;;;18.13;2.47;;;7.70;99.90;;;;;;5093265;28;20036;-58
2024/01/23 09:59:33;;;;;;;13.77;2.77;;;7.70;99.90;;;;;;5093744;28;20573;-57
2024/01/23 10:01:59;;;;;;;24.80;2.75;;;7.70;99.90;;;;;;5093232;28;20270;-56
2024/01/23 10:04:28;;;;;;;28.42;2.85;;;7.70;99.90;;;;;;5093894;28;20020;-57
2024/01/23 10:06:54;;;;;;;22.40;3.28;;;7.80;99.90;;;;;;5093089;28;20031;-55
2024/01/23 10:09:20;;;;;;;21.88;4.25;;;7.70;99.90;;;;;;5093265;28;20032;-58
2024/01/23 10:11:45;;;;;;;17.90;2.67;;;7.70;99.90;;;;;;5098737;28;20026;-56
2024/01/23 10:14:15;;;;;;;18.55;2.20;;;7.80;99.90;;;;;;5113391;28;20109;-55
2024/01/23 10:16:40;;;;;;;25.17;2.78;;;7.80;99.90;;;;;;5113349;28;20028;-53
2024/01/23 10:19:12;;;;;;;21.92;3.38;;;7.90;99.90;;;;;;5113487;28;20111;-54
2024/01/23 10:21:39;;;;;;;30.75;5.53;;;7.90;99.90;;;;;;5101966;28;20123;-59
2024/01/23 10:24:06;;;;;;;25.85;2.80;;;8.00;99.90;;;;;;5110581;28;20028;-51
2024/01/23 10:26:32;;;;;;;17.63;3.03;;;8.10;99.90;;;;;;5107947;28;20020;-55
2024/01/23 10:29:01;;;;;;;12.43;2.28;;;8.20;99.90;;;;;;5101251;28;20420;-53
2024/01/23 10:31:27;;;;;;;30.00;3.67;;;8.30;99.90;;;;;;5101391;28;20582;-55
2024/01/23 10:33:53;;;;;;;19.70;2.60;;;8.40;99.90;;;;;;5113188;28;20076;-55
2024/01/23 10:36:20;;;;;;;10.35;2.17;;;8.30;99.90;;;;;;5113276;28;20114;-56
2024/01/23 10:38:50;;;;;;;20.80;2.55;;;8.40;99.90;;;;;;5112269;28;20106;-56
2024/01/23 10:41:17;;;;;;;14.23;3.95;;;8.40;99.90;;;;;;5113493;28;20506;-56
2024/01/23 10:43:46;;;;;;;11.52;1.70;;;8.40;99.90;;;;;;5112497;28;20483;-55
2024/01/23 10:46:12;;;;;;;19.00;2.60;;;8.40;99.90;;;;;;5092808;28;20051;-55
2024/01/23 10:48:38;;;;;;;12.95;3.08;;;8.40;99.90;;;;;;5091401;28;20532;-55
2024/01/23 10:51:30;;;;;;;12.23;2.70;;;8.40;99.90;;;;;;5093024;28;20565;-56
2024/01/23 10:54:03;;;;;;;15.60;2.67;;;8.50;99.90;;;;;;5092812;28;20036;-57
2024/01/23 10:56:34;;;;;;;20.77;3.25;;;8.50;99.90;;;;;;5093315;28;20480;-56
2024/01/23 10:59:00;;;;;;;22.88;3.00;;;8.50;99.90;;;;;;5092640;28;20108;-56
2024/01/23 11:01:34;;;;;;;10.32;2.35;;;8.50;99.90;;;;;;5092685;28;20032;-56
2024/01/23 11:04:01;;;;;;;23.98;3.10;;;8.60;99.90;;;;;;5092448;28;20111;-54
2024/01/23 11:06:30;;;;;;;23.17;2.70;;;8.50;99.90;;;;;;5092355;28;20089;-56
2024/01/23 11:09:19;;;;;;;16.48;3.28;;;8.60;99.90;;;;;;5092557;28;20032;-57
2024/01/23 11:12:06;;;;;;;16.27;2.15;;;8.60;99.90;;;;;;5091838;28;20032;-57
2024/01/23 11:14:57;;;;;;;13.63;2.30;;;8.50;99.90;;;;;;5092546;28;20055;-58
2024/01/23 11:17:22;;;;;;;21.02;2.15;;;8.50;99.90;;;;;;5092492;28;20036;-56
2024/01/23 11:20:13;;;;;;;27.73;4.10;;;8.50;99.90;;;;;;5092537;28;20022;-56
2024/01/23 11:22:39;;;;;;;18.13;2.80;;;8.50;99.90;;;;;;5092631;28;20421;-55
2024/01/23 11:25:05;;;;;;;16.30;3.67;;;8.50;99.90;;;;;;5092469;28;20388;-55
2024/01/23 11:27:33;;;;;;;18.17;2.40;;;8.50;99.90;;;;;;5092404;28;20480;-55
2024/01/23 11:29:59;;;;;;;18.15;3.28;;;8.50;99.90;;;;;;5092804;28;20100;-55
2024/01/23 11:32:28;;;;;;;19.23;2.47;;;8.60;99.90;;;;;;5092390;28;20024;-55
2024/01/23 11:35:20;;;;;;;15.13;2.03;;;8.60;99.90;;;;;;5092362;28;20504;-54
2024/01/23 11:37:50;;;;;;;21.67;2.40;;;8.70;99.90;;;;;;5090134;28;20053;-56
2024/01/23 11:40:33;;;;;;;21.95;3.47;;;8.70;99.90;;;;;;5092753;28;20028;-55
2024/01/23 11:43:06;;;;;;;20.05;2.65;;;8.80;99.90;;;;;;5092587;28;20538;-53
2024/01/23 11:45:35;;;;;;;19.77;2.83;;;8.80;99.90;;;;;;5092921;28;20027;-55
2024/01/23 11:48:04;;;;;;;14.48;2.63;;;8.90;99.90;;;;;;5092360;28;20529;-56
2024/01/23 11:50:32;;;;;;;7.93;2.17;;;9.00;99.90;;;;;;5092349;28;20103;-55
2024/01/23 11:52:59;;;;;;;20.10;2.40;;;9.10;99.90;;;;;;5092388;28;20472;-55
2024/01/23 11:55:26;;;;;;;28.83;3.03;;;9.10;99.90;;;;;;5095314;28;20538;-55
2024/01/23 11:58:00;;;;;;;4.18;0.98;;;9.20;99.90;;;;;;5095425;28;20020;-53
2024/01/23 12:00:29;;;;;;;20.95;2.28;;;9.30;99.90;;;;;;5095539;28;20399;-55
2024/01/23 12:02:55;;;;;;;15.95;2.83;;;9.20;99.90;;;;;;5096000;28;20023;-56
2024/01/23 12:05:21;;;;;;;33.25;3.92;;;9.10;99.90;;;;;;5096372;28;20020;-57
2024/01/23 12:07:47;;;;;;;29.80;3.70;;;9.20;99.90;;;;;;5116106;28;20380;-55
2024/01/23 12:10:19;;;;;;;19.30;3.20;;;9.20;99.90;;;;;;5116093;28;20057;-54
2024/01/23 12:12:45;;;;;;;20.15;3.28;;;9.20;99.90;;;;;;5115650;28;20019;-56
2024/01/23 12:15:11;;;;;;;14.18;3.65;;;9.30;99.90;;;;;;5115528;28;20042;-56
2024/01/23 12:17:46;;;;;;;11.80;2.38;;;9.30;99.90;;;;;;5115903;28;20115;-56
2024/01/23 12:20:12;;;;;;;19.25;2.33;;;9.30;99.90;;;;;;5101894;28;20024;-56
2024/01/23 12:22:38;;;;;;;19.83;2.47;;;9.30;99.90;;;;;;5135046;27;20034;-39
2024/01/23 12:25:04;;;;;;;20.15;2.40;;;9.30;99.90;;;;;;5136422;27;20370;-41
2024/01/23 12:27:31;;;;;;;19.75;2.67;;;9.30;99.90;;;;;;5136255;27;20483;-41
2024/01/23 12:29:58;;;;;;;19.45;2.80;;;9.30;99.90;;;;;;5136072;27;20076;-42
2024/01/23 12:32:28;;;;;;;12.15;2.63;;;9.30;99.90;;;;;;5121279;27;20028;-39
2024/01/23 12:34:54;;;;;;;33.72;2.50;;;9.40;99.90;;;;;;5114508;28;20498;-41
2024/01/23 12:37:28;;;;;;;23.02;3.42;;;9.40;99.90;;;;;;5114560;28;20023;-69
2024/01/23 12:39:55;;;;;;;30.60;3.00;;;9.40;99.90;;;;;;5115686;28;20389;-63
2024/01/23 12:42:22;;;;;;;22.58;2.90;;;9.40;99.90;;;;;;5115577;28;20525;-55
2024/01/23 12:44:47;;;;;;;18.05;2.40;;;9.50;99.90;;;;;;5115271;28;20471;-56